createdAt,value
2022-12-18T00:01:07.354Z,101999.00
2022-12-18T00:06:02.391Z,101911.16
2022-12-18T00:11:00.540Z,102013.06
2022-12-18T00:15:54.426Z,102035.72
2022-12-18T00:20:49.935Z,102018.31
2022-12-18T00:25:45.640Z,102019.59
2022-12-18T00:30:38.869Z,102048.50
2022-12-18T00:35:32.027Z,102022.66
2022-12-18T00:40:25.353Z,102021.94
2022-12-18T00:45:22.329Z,102091.03
2022-12-18T00:50:15.617Z,102098.88
2022-12-18T00:55:09.686Z,102100.69
2022-12-18T01:00:02.971Z,102031.22
2022-12-18T01:04:57.776Z,102102.63
2022-12-18T01:09:51.033Z,102106.06
2022-12-18T01:14:44.292Z,102104.44
2022-12-18T01:19:40.119Z,102054.38
2022-12-18T01:24:38.489Z,101928.72
2022-12-18T01:29:31.979Z,102077.34
2022-12-18T01:34:25.287Z,102030.81
2022-12-18T01:39:18.530Z,102051.91
2022-12-18T01:44:45.127Z,102071.47
2022-12-18T01:49:39.882Z,102125.97
2022-12-18T01:54:33.218Z,102081.03
2022-12-18T01:59:26.788Z,102124.28
2022-12-18T02:04:23.761Z,102102.19
2022-12-18T02:09:23.635Z,102064.00
2022-12-18T02:14:25.872Z,102110.84
2022-12-18T02:19:45.413Z,102114.28
2022-12-18T02:24:49.546Z,102077.25
2022-12-18T02:29:54.342Z,102127.53
2022-12-18T02:34:54.874Z,102132.03
2022-12-18T02:39:51.493Z,102173.94
2022-12-18T02:44:47.877Z,102030.81
2022-12-18T02:49:56.064Z,102196.69
2022-12-18T02:55:02.345Z,102170.78
2022-12-18T03:00:03.766Z,102214.56
2022-12-18T03:05:00.365Z,102231.69
2022-12-18T03:09:56.717Z,102172.72
2022-12-18T03:14:53.121Z,102257.25
2022-12-18T03:19:50.483Z,102265.16
2022-12-18T03:24:44.551Z,102213.22
2022-12-18T03:29:41.350Z,102247.44
2022-12-18T03:34:39.269Z,102202.59
2022-12-18T03:39:37.541Z,102259.72
2022-12-18T03:44:36.708Z,102254.00
2022-12-18T03:49:36.750Z,102297.56
2022-12-18T03:54:33.574Z,102120.81
2022-12-18T03:59:37.584Z,102268.97
2022-12-18T04:04:33.349Z,102266.53
2022-12-18T04:09:30.655Z,102042.03
2022-12-18T04:14:24.848Z,102311.06
2022-12-18T04:19:23.331Z,102325.66
2022-12-18T04:24:19.219Z,102313.72
2022-12-18T04:29:21.883Z,102277.34
2022-12-18T04:34:17.082Z,102317.53
2022-12-18T04:39:20.446Z,102298.78
2022-12-18T04:44:16.362Z,102355.25
2022-12-18T04:49:11.530Z,102361.28
2022-12-18T04:54:04.887Z,102371.59
2022-12-18T04:58:59.513Z,102390.59
2022-12-18T05:03:53.616Z,102283.31
2022-12-18T05:08:46.798Z,102415.66
2022-12-18T05:13:40.990Z,102401.28
2022-12-18T05:18:36.178Z,102318.63
2022-12-18T05:23:32.480Z,102380.06
2022-12-18T05:28:27.017Z,102413.41
2022-12-18T05:33:20.982Z,102413.56
2022-12-18T05:38:15.682Z,102425.53
2022-12-18T05:43:08.851Z,102459.75
2022-12-18T05:48:02.157Z,102466.63
2022-12-18T05:52:55.334Z,102261.19
2022-12-18T05:57:50.385Z,102421.63
2022-12-18T06:02:43.741Z,102419.94
2022-12-18T06:07:36.984Z,102492.56
2022-12-18T06:12:30.238Z,102470.41
2022-12-18T06:17:24.851Z,102505.47
2022-12-18T06:22:17.971Z,102509.81
2022-12-18T06:27:11.098Z,102529.59
2022-12-18T06:32:04.340Z,102541.59
2022-12-18T06:36:58.915Z,102551.88
2022-12-18T06:41:52.026Z,102558.72
2022-12-18T06:46:45.210Z,102563.88
2022-12-18T06:51:38.487Z,102508.41
2022-12-18T06:56:33.123Z,102530.66
2022-12-18T07:01:26.385Z,102593.91
2022-12-18T07:06:22.807Z,102597.31
2022-12-18T07:11:16.498Z,102567.50
2022-12-18T07:16:19.650Z,102569.19
2022-12-18T07:21:20.202Z,102622.09
2022-12-18T07:26:16.252Z,102632.34
2022-12-18T07:31:12.437Z,102586.16
2022-12-18T07:36:10.175Z,102586.16
2022-12-18T07:41:04.064Z,102655.38
2022-12-18T07:46:01.606Z,102628.06
2022-12-18T07:51:00.020Z,102651.88
2022-12-18T07:56:25.485Z,102661.84
2022-12-18T08:01:12.617Z,102648.84
2022-12-18T08:06:11.764Z,102666.69
2022-12-18T08:11:06.976Z,102645.94
2022-12-18T08:16:04.223Z,102680.81
2022-12-18T08:20:58.179Z,102639.72
2022-12-18T08:25:53.500Z,102646.41
2022-12-18T08:30:47.252Z,102696.03
2022-12-18T08:35:45.614Z,102686.31
2022-12-18T08:40:39.631Z,102667.25
2022-12-18T08:45:34.310Z,102656.81
2022-12-18T08:50:27.685Z,102650.75
2022-12-18T08:55:21.247Z,102663.59
2022-12-18T09:00:16.811Z,102693.59
2022-12-18T09:05:12.060Z,102691.09
2022-12-18T09:10:06.256Z,102667.25
2022-12-18T09:14:59.490Z,102705.75
2022-12-18T09:19:53.279Z,102711.03
2022-12-18T09:24:48.234Z,102630.06
2022-12-18T09:29:41.473Z,102658.31
2022-12-18T09:34:35.015Z,102701.69
2022-12-18T09:39:28.203Z,102711.13
2022-12-18T09:44:27.680Z,102704.09
2022-12-18T09:49:24.653Z,102698.81
2022-12-18T09:54:28.329Z,102695.28
2022-12-18T09:59:28.820Z,102626.03
2022-12-18T10:04:22.182Z,102671.25
2022-12-18T10:09:23.737Z,102701.09
2022-12-18T10:14:29.295Z,102679.03
2022-12-18T10:19:50.510Z,102713.13
2022-12-18T10:24:52.615Z,102687.66
2022-12-18T10:29:48.455Z,102721.88
2022-12-18T10:34:41.921Z,102726.22
2022-12-18T10:39:35.517Z,102702.47
2022-12-18T10:44:29.152Z,102738.41
2022-12-18T10:49:28.164Z,102734.22
2022-12-18T10:54:24.864Z,102602.97
2022-12-18T10:59:19.858Z,102695.28
2022-12-18T11:04:37.481Z,102760.31
2022-12-18T11:09:32.998Z,102756.84
2022-12-18T11:14:28.587Z,102650.16
2022-12-18T11:19:32.386Z,102762.88
2022-12-18T11:24:32.179Z,102756.91
2022-12-18T11:29:35.127Z,102740.81
2022-12-18T11:34:31.491Z,102730.53
2022-12-18T11:39:34.313Z,102765.44
2022-12-18T11:44:33.780Z,102771.47
2022-12-18T11:49:31.304Z,102761.22
2022-12-18T11:54:24.644Z,102721.16
2022-12-18T11:59:29.558Z,102655.44
2022-12-18T12:04:47.329Z,102781.81
2022-12-18T12:09:48.786Z,102669.88
2022-12-18T12:14:55.222Z,102738.13
2022-12-18T12:20:00.305Z,102773.75
2022-12-18T12:25:05.973Z,102781.44
2022-12-18T12:30:08.444Z,102740.38
2022-12-18T12:35:19.144Z,102751.47
2022-12-18T12:40:49.761Z,102732.84
2022-12-18T12:45:41.257Z,102747.50
2022-12-18T12:50:37.749Z,102791.16
2022-12-18T12:55:32.115Z,102773.34
2022-12-18T13:00:26.892Z,102785.44
2022-12-18T13:05:28.318Z,102781.25
2022-12-18T13:10:28.830Z,102781.31
2022-12-18T13:15:25.057Z,102783.94
2022-12-18T13:20:20.472Z,102819.97
2022-12-18T13:25:33.702Z,102787.63
2022-12-18T13:31:00.097Z,102825.31
2022-12-18T13:36:03.249Z,102846.06
2022-12-18T13:41:00.320Z,102827.28
2022-12-18T13:46:03.900Z,102829.88
2022-12-18T13:51:24.175Z,102765.75
2022-12-18T13:56:36.395Z,102639.31
2022-12-18T14:02:05.599Z,102686.38
2022-12-18T14:07:13.657Z,102839.59
2022-12-18T14:12:45.925Z,102642.06
2022-12-18T14:17:45.050Z,102685.69
2022-12-18T14:22:52.447Z,102707.06
2022-12-18T14:28:00.698Z,102713.06
2022-12-18T14:33:02.810Z,102726.78
2022-12-18T14:37:56.180Z,102925.31
2022-12-18T14:42:51.243Z,102808.94
2022-12-18T14:47:46.201Z,102886.91
2022-12-18T15:12:29.729Z,102935.72
2022-12-18T15:25:45.817Z,102889.66
2022-12-18T15:37:49.001Z,102909.25
2022-12-18T15:43:32.864Z,102752.72
2022-12-18T15:48:45.392Z,102881.09
2022-12-18T15:53:53.885Z,102881.19
2022-12-18T15:59:21.847Z,102836.72
2022-12-18T16:04:24.919Z,102783.72
2022-12-18T16:21:48.704Z,103014.16
2022-12-18T16:27:48.644Z,102962.94
2022-12-18T16:34:10.237Z,102786.63
2022-12-18T16:46:00.200Z,102937.47
2022-12-18T16:51:24.110Z,102958.09
2022-12-18T16:58:07.616Z,102804.81
2022-12-18T17:08:39.981Z,103080.94
2022-12-18T17:14:16.054Z,103108.41
2022-12-18T17:19:17.705Z,102968.69
2022-12-18T17:24:11.354Z,103053.63
2022-12-18T17:29:09.182Z,102981.56
2022-12-18T17:34:33.362Z,102890.78
2022-12-18T17:40:19.832Z,102907.97
2022-12-18T17:46:10.502Z,102858.25
2022-12-18T17:51:17.574Z,103163.69
2022-12-18T17:56:25.903Z,102946.66
2022-12-18T18:01:50.764Z,103150.94
2022-12-18T18:13:49.313Z,103128.69
2022-12-18T18:18:48.754Z,102923.59
2022-12-18T18:23:46.624Z,102927.91
2022-12-18T18:29:05.083Z,103130.50
2022-12-18T18:34:03.008Z,103042.06
2022-12-18T18:39:06.523Z,103113.34
2022-12-18T18:44:12.839Z,103008.59
2022-12-18T18:49:09.946Z,103248.28
2022-12-18T18:54:10.358Z,103009.47
2022-12-18T18:59:05.120Z,103109.09
2022-12-18T19:04:29.071Z,103170.09
2022-12-18T19:09:30.364Z,103036.06
2022-12-18T19:14:45.704Z,103072.13
2022-12-18T19:27:37.787Z,103024.84
2022-12-18T19:39:12.753Z,103045.44
2022-12-18T19:45:37.067Z,103342.09
2022-12-18T19:50:32.409Z,103251.75
2022-12-18T19:56:11.217Z,103239.69
2022-12-18T20:01:48.900Z,103072.03
2022-12-18T20:07:29.635Z,103330.00
2022-12-18T20:13:11.034Z,103118.41
2022-12-18T20:18:31.185Z,103101.16
2022-12-18T20:23:30.008Z,103160.50
2022-12-18T20:28:57.147Z,103352.34
2022-12-18T20:34:06.146Z,103160.41
2022-12-18T20:39:18.104Z,103150.06
2022-12-18T20:44:36.032Z,103310.09
2022-12-18T20:49:57.298Z,103271.34
2022-12-18T21:01:17.109Z,103305.69
2022-12-18T21:11:52.236Z,103374.59
2022-12-18T21:16:51.328Z,103313.47
2022-12-18T21:21:47.678Z,103128.44
2022-12-18T21:32:29.884Z,103155.13
2022-12-18T21:37:36.362Z,103179.22
2022-12-18T21:42:50.796Z,103165.38
2022-12-18T21:48:14.693Z,103176.66
2022-12-18T21:53:09.626Z,103203.34
2022-12-18T21:58:09.568Z,103341.88
2022-12-18T22:03:17.471Z,103163.75
2022-12-18T22:08:13.818Z,103134.44
2022-12-18T22:13:17.016Z,103412.50
2022-12-18T22:18:23.094Z,103291.91
2022-12-18T22:23:29.190Z,103194.69
2022-12-18T22:28:43.975Z,103218.72
2022-12-18T22:33:46.777Z,103206.63
2022-12-18T22:38:50.889Z,103154.09
2022-12-18T22:44:31.882Z,103427.09
2022-12-18T22:49:34.877Z,103344.34
2022-12-18T22:55:02.281Z,103234.97
2022-12-18T23:05:52.403Z,103178.06
2022-12-18T23:10:56.185Z,103181.53
2022-12-18T23:15:49.881Z,103149.66
2022-12-18T23:20:47.951Z,103139.38
2022-12-18T23:25:46.718Z,103226.25
2022-12-18T23:30:42.977Z,103407.06
2022-12-18T23:35:45.570Z,103139.25
2022-12-18T23:40:39.007Z,103342.38
2022-12-18T23:45:52.514Z,103350.97
2022-12-18T23:50:49.233Z,103286.28
2022-12-18T23:55:45.097Z,103337.03
